sensor_id;sensor_type;location;lat;lon;timestamp;P1;durP1;ratioP1;P2;durP2;ratioP2
17993;SDS011;9122;48.406;9.984;2023-04-15T00:00:56;3.67;;;2.70;;
17993;SDS011;9122;48.406;9.984;2023-04-15T00:03:42;6.00;;;3.10;;
17993;SDS011;9122;48.406;9.984;2023-04-15T00:06:26;3.27;;;2.87;;
17993;SDS011;9122;48.406;9.984;2023-04-15T00:09:11;3.77;;;2.93;;
17993;SDS011;9122;48.406;9.984;2023-04-15T00:11:55;3.07;;;2.83;;
17993;SDS011;9122;48.406;9.984;2023-04-15T00:14:40;4.23;;;2.87;;
17993;SDS011;9122;48.406;9.984;2023-04-15T00:17:25;3.10;;;2.70;;
17993;SDS011;9122;48.406;9.984;2023-04-15T00:20:09;3.00;;;2.80;;
17993;SDS011;9122;48.406;9.984;2023-04-15T00:22:54;4.27;;;2.87;;
17993;SDS011;9122;48.406;9.984;2023-04-15T00:25:39;3.10;;;2.90;;
17993;SDS011;9122;48.406;9.984;2023-04-15T00:28:23;3.07;;;2.73;;
17993;SDS011;9122;48.406;9.984;2023-04-15T00:31:08;4.80;;;3.37;;
17993;SDS011;9122;48.406;9.984;2023-04-15T00:33:52;3.90;;;3.50;;
17993;SDS011;9122;48.406;9.984;2023-04-15T00:36:36;6.73;;;3.33;;
17993;SDS011;9122;48.406;9.984;2023-04-15T00:39:21;4.43;;;2.87;;
17993;SDS011;9122;48.406;9.984;2023-04-15T00:42:05;3.43;;;3.13;;
17993;SDS011;9122;48.406;9.984;2023-04-15T00:44:50;3.67;;;2.70;;
17993;SDS011;9122;48.406;9.984;2023-04-15T00:47:34;3.77;;;3.47;;
17993;SDS011;9122;48.406;9.984;2023-04-15T00:50:20;2.90;;;2.70;;
17993;SDS011;9122;48.406;9.984;2023-04-15T00:53:04;3.07;;;2.77;;
17993;SDS011;9122;48.406;9.984;2023-04-15T00:55:49;2.87;;;2.60;;
17993;SDS011;9122;48.406;9.984;2023-04-15T00:58:34;3.57;;;3.27;;
17993;SDS011;9122;48.406;9.984;2023-04-15T01:01:20;4.33;;;2.77;;
17993;SDS011;9122;48.406;9.984;2023-04-15T01:04:05;3.60;;;3.30;;
17993;SDS011;9122;48.406;9.984;2023-04-15T01:06:50;2.93;;;2.73;;
17993;SDS011;9122;48.406;9.984;2023-04-15T01:09:34;3.47;;;3.17;;
17993;SDS011;9122;48.406;9.984;2023-04-15T01:12:19;3.50;;;3.30;;
17993;SDS011;9122;48.406;9.984;2023-04-15T01:15:04;3.33;;;3.03;;
17993;SDS011;9122;48.406;9.984;2023-04-15T01:17:48;3.77;;;2.90;;
17993;SDS011;9122;48.406;9.984;2023-04-15T01:20:33;3.17;;;2.90;;
17993;SDS011;9122;48.406;9.984;2023-04-15T01:23:17;3.80;;;3.50;;
17993;SDS011;9122;48.406;9.984;2023-04-15T01:26:03;5.00;;;3.23;;
17993;SDS011;9122;48.406;9.984;2023-04-15T01:28:49;3.77;;;3.03;;
17993;SDS011;9122;48.406;9.984;2023-04-15T01:31:34;3.60;;;3.27;;
17993;SDS011;9122;48.406;9.984;2023-04-15T01:34:18;3.40;;;3.00;;
17993;SDS011;9122;48.406;9.984;2023-04-15T01:37:03;3.50;;;3.20;;
17993;SDS011;9122;48.406;9.984;2023-04-15T01:39:48;3.80;;;3.50;;
17993;SDS011;9122;48.406;9.984;2023-04-15T01:42:33;3.60;;;3.30;;
17993;SDS011;9122;48.406;9.984;2023-04-15T01:45:19;3.23;;;3.03;;
17993;SDS011;9122;48.406;9.984;2023-04-15T01:48:04;3.13;;;2.93;;
17993;SDS011;9122;48.406;9.984;2023-04-15T01:50:48;3.07;;;2.77;;
17993;SDS011;9122;48.406;9.984;2023-04-15T01:53:33;5.67;;;3.13;;
17993;SDS011;9122;48.406;9.984;2023-04-15T01:56:17;3.10;;;2.83;;
17993;SDS011;9122;48.406;9.984;2023-04-15T01:59:02;3.00;;;2.73;;
17993;SDS011;9122;48.406;9.984;2023-04-15T02:01:47;4.77;;;3.57;;
17993;SDS011;9122;48.406;9.984;2023-04-15T02:04:31;3.50;;;3.20;;
17993;SDS011;9122;48.406;9.984;2023-04-15T02:07:16;4.43;;;3.00;;
17993;SDS011;9122;48.406;9.984;2023-04-15T02:10:01;3.47;;;3.17;;
17993;SDS011;9122;48.406;9.984;2023-04-15T02:12:46;3.83;;;3.07;;
17993;SDS011;9122;48.406;9.984;2023-04-15T02:15:30;4.07;;;3.57;;
17993;SDS011;9122;48.406;9.984;2023-04-15T02:18:16;3.83;;;3.03;;
17993;SDS011;9122;48.406;9.984;2023-04-15T02:21:01;3.73;;;3.10;;
17993;SDS011;9122;48.406;9.984;2023-04-15T02:23:45;5.33;;;3.50;;
17993;SDS011;9122;48.406;9.984;2023-04-15T02:26:31;4.70;;;4.20;;
17993;SDS011;9122;48.406;9.984;2023-04-15T02:29:16;4.20;;;3.80;;
17993;SDS011;9122;48.406;9.984;2023-04-15T02:32:00;4.70;;;3.80;;
17993;SDS011;9122;48.406;9.984;2023-04-15T02:34:44;3.83;;;3.53;;
17993;SDS011;9122;48.406;9.984;2023-04-15T02:37:29;5.40;;;4.23;;
17993;SDS011;9122;48.406;9.984;2023-04-15T02:40:14;3.80;;;3.53;;
17993;SDS011;9122;48.406;9.984;2023-04-15T02:42:58;3.43;;;3.10;;
17993;SDS011;9122;48.406;9.984;2023-04-15T02:45:44;3.70;;;3.40;;
17993;SDS011;9122;48.406;9.984;2023-04-15T02:48:29;7.10;;;3.20;;
17993;SDS011;9122;48.406;9.984;2023-04-15T02:51:18;5.00;;;3.60;;
17993;SDS011;9122;48.406;9.984;2023-04-15T02:54:03;3.53;;;3.23;;
17993;SDS011;9122;48.406;9.984;2023-04-15T02:56:48;3.40;;;3.20;;
17993;SDS011;9122;48.406;9.984;2023-04-15T02:59:33;4.60;;;2.97;;
17993;SDS011;9122;48.406;9.984;2023-04-15T03:02:18;3.10;;;2.80;;
17993;SDS011;9122;48.406;9.984;2023-04-15T03:05:04;4.13;;;3.73;;
17993;SDS011;9122;48.406;9.984;2023-04-15T03:07:50;4.23;;;3.30;;
17993;SDS011;9122;48.406;9.984;2023-04-15T03:10:34;6.67;;;3.50;;
17993;SDS011;9122;48.406;9.984;2023-04-15T03:13:19;4.50;;;4.10;;
17993;SDS011;9122;48.406;9.984;2023-04-15T03:16:04;4.17;;;3.63;;
17993;SDS011;9122;48.406;9.984;2023-04-15T03:18:49;4.27;;;3.37;;
17993;SDS011;9122;48.406;9.984;2023-04-15T03:21:33;5.40;;;3.70;;
17993;SDS011;9122;48.406;9.984;2023-04-15T03:24:18;4.07;;;3.50;;
17993;SDS011;9122;48.406;9.984;2023-04-15T03:27:03;5.30;;;3.23;;
17993;SDS011;9122;48.406;9.984;2023-04-15T03:29:49;3.97;;;3.17;;
17993;SDS011;9122;48.406;9.984;2023-04-15T03:32:36;3.70;;;3.40;;
17993;SDS011;9122;48.406;9.984;2023-04-15T03:35:21;3.17;;;2.97;;
17993;SDS011;9122;48.406;9.984;2023-04-15T03:38:05;5.43;;;3.27;;
17993;SDS011;9122;48.406;9.984;2023-04-15T03:40:50;3.87;;;3.53;;
17993;SDS011;9122;48.406;9.984;2023-04-15T03:43:34;3.80;;;3.43;;
17993;SDS011;9122;48.406;9.984;2023-04-15T03:46:19;5.13;;;3.73;;
17993;SDS011;9122;48.406;9.984;2023-04-15T03:49:05;4.03;;;3.63;;
17993;SDS011;9122;48.406;9.984;2023-04-15T03:51:50;3.77;;;3.47;;
17993;SDS011;9122;48.406;9.984;2023-04-15T03:54:34;3.83;;;3.33;;
17993;SDS011;9122;48.406;9.984;2023-04-15T03:57:19;5.13;;;3.70;;
17993;SDS011;9122;48.406;9.984;2023-04-15T04:00:04;4.17;;;3.80;;
17993;SDS011;9122;48.406;9.984;2023-04-15T04:02:50;4.50;;;3.67;;
17993;SDS011;9122;48.406;9.984;2023-04-15T04:05:35;4.00;;;3.70;;
17993;SDS011;9122;48.406;9.984;2023-04-15T04:08:21;3.77;;;3.47;;
17993;SDS011;9122;48.406;9.984;2023-04-15T04:11:06;3.83;;;3.33;;
17993;SDS011;9122;48.406;9.984;2023-04-15T04:13:50;4.67;;;3.73;;
17993;SDS011;9122;48.406;9.984;2023-04-15T04:16:34;4.30;;;3.90;;
17993;SDS011;9122;48.406;9.984;2023-04-15T04:19:19;3.70;;;3.37;;
17993;SDS011;9122;48.406;9.984;2023-04-15T04:22:05;4.77;;;3.80;;
17993;SDS011;9122;48.406;9.984;2023-04-15T04:24:49;3.53;;;3.33;;
17993;SDS011;9122;48.406;9.984;2023-04-15T04:27:34;3.63;;;3.33;;
17993;SDS011;9122;48.406;9.984;2023-04-15T04:30:19;6.30;;;3.50;;
17993;SDS011;9122;48.406;9.984;2023-04-15T04:33:03;4.30;;;3.47;;
17993;SDS011;9122;48.406;9.984;2023-04-15T04:35:47;4.93;;;3.53;;
17993;SDS011;9122;48.406;9.984;2023-04-15T04:38:31;6.23;;;3.77;;
17993;SDS011;9122;48.406;9.984;2023-04-15T04:41:16;3.70;;;3.40;;
17993;SDS011;9122;48.406;9.984;2023-04-15T04:44:00;3.67;;;3.40;;
17993;SDS011;9122;48.406;9.984;2023-04-15T04:46:45;4.87;;;3.80;;
17993;SDS011;9122;48.406;9.984;2023-04-15T04:49:29;4.30;;;3.90;;
17993;SDS011;9122;48.406;9.984;2023-04-15T04:52:14;4.70;;;3.57;;
17993;SDS011;9122;48.406;9.984;2023-04-15T04:54:59;4.63;;;4.13;;
17993;SDS011;9122;48.406;9.984;2023-04-15T04:57:44;4.47;;;3.90;;
17993;SDS011;9122;48.406;9.984;2023-04-15T05:00:28;4.87;;;4.30;;
17993;SDS011;9122;48.406;9.984;2023-04-15T05:03:13;5.63;;;4.30;;
17993;SDS011;9122;48.406;9.984;2023-04-15T05:05:57;4.40;;;4.00;;
17993;SDS011;9122;48.406;9.984;2023-04-15T05:08:42;4.80;;;4.27;;
17993;SDS011;9122;48.406;9.984;2023-04-15T05:11:26;7.00;;;4.17;;
17993;SDS011;9122;48.406;9.984;2023-04-15T05:14:11;3.67;;;3.37;;
17993;SDS011;9122;48.406;9.984;2023-04-15T05:16:55;4.83;;;4.17;;
17993;SDS011;9122;48.406;9.984;2023-04-15T05:19:40;9.80;;;4.47;;
17993;SDS011;9122;48.406;9.984;2023-04-15T05:22:24;4.67;;;4.33;;
17993;SDS011;9122;48.406;9.984;2023-04-15T05:25:09;4.47;;;4.07;;
17993;SDS011;9122;48.406;9.984;2023-04-15T05:27:53;6.27;;;3.77;;
17993;SDS011;9122;48.406;9.984;2023-04-15T05:30:38;4.50;;;4.10;;
17993;SDS011;9122;48.406;9.984;2023-04-15T05:33:23;4.50;;;4.20;;
17993;SDS011;9122;48.406;9.984;2023-04-15T05:36:07;5.07;;;4.33;;
17993;SDS011;9122;48.406;9.984;2023-04-15T05:38:52;4.33;;;3.40;;
17993;SDS011;9122;48.406;9.984;2023-04-15T05:41:36;5.10;;;4.23;;
17993;SDS011;9122;48.406;9.984;2023-04-15T05:44:21;4.60;;;4.20;;
17993;SDS011;9122;48.406;9.984;2023-04-15T05:47:06;8.07;;;4.80;;
17993;SDS011;9122;48.406;9.984;2023-04-15T05:49:51;4.67;;;3.57;;
17993;SDS011;9122;48.406;9.984;2023-04-15T05:52:35;4.57;;;4.17;;
17993;SDS011;9122;48.406;9.984;2023-04-15T05:55:20;4.97;;;4.47;;
17993;SDS011;9122;48.406;9.984;2023-04-15T05:58:04;5.23;;;3.80;;
17993;SDS011;9122;48.406;9.984;2023-04-15T06:00:49;6.23;;;4.30;;
17993;SDS011;9122;48.406;9.984;2023-04-15T06:03:36;5.80;;;4.43;;
17993;SDS011;9122;48.406;9.984;2023-04-15T06:06:21;5.47;;;4.47;;
17993;SDS011;9122;48.406;9.984;2023-04-15T06:09:05;3.60;;;3.30;;
17993;SDS011;9122;48.406;9.984;2023-04-15T06:11:50;5.53;;;4.23;;
17993;SDS011;9122;48.406;9.984;2023-04-15T06:14:35;5.27;;;3.80;;
17993;SDS011;9122;48.406;9.984;2023-04-15T06:17:19;5.83;;;4.20;;
17993;SDS011;9122;48.406;9.984;2023-04-15T06:20:03;4.53;;;4.10;;
17993;SDS011;9122;48.406;9.984;2023-04-15T06:22:48;4.83;;;4.43;;
17993;SDS011;9122;48.406;9.984;2023-04-15T06:25:32;5.47;;;4.43;;
17993;SDS011;9122;48.406;9.984;2023-04-15T06:28:16;9.27;;;5.23;;
17993;SDS011;9122;48.406;9.984;2023-04-15T06:31:01;5.63;;;4.97;;
17993;SDS011;9122;48.406;9.984;2023-04-15T06:33:45;6.50;;;4.67;;
17993;SDS011;9122;48.406;9.984;2023-04-15T06:36:32;5.37;;;4.90;;
17993;SDS011;9122;48.406;9.984;2023-04-15T06:39:17;6.47;;;5.47;;
17993;SDS011;9122;48.406;9.984;2023-04-15T06:42:02;6.13;;;5.53;;
17993;SDS011;9122;48.406;9.984;2023-04-15T06:44:46;5.93;;;5.33;;
17993;SDS011;9122;48.406;9.984;2023-04-15T06:47:30;6.03;;;5.60;;
17993;SDS011;9122;48.406;9.984;2023-04-15T06:50:20;5.23;;;4.83;;
17993;SDS011;9122;48.406;9.984;2023-04-15T06:53:04;6.40;;;5.80;;
17993;SDS011;9122;48.406;9.984;2023-04-15T06:55:49;5.93;;;4.90;;
17993;SDS011;9122;48.406;9.984;2023-04-15T06:58:33;5.57;;;5.03;;
17993;SDS011;9122;48.406;9.984;2023-04-15T07:01:18;5.43;;;4.97;;
17993;SDS011;9122;48.406;9.984;2023-04-15T07:04:03;5.30;;;5.00;;
17993;SDS011;9122;48.406;9.984;2023-04-15T07:06:48;5.47;;;4.97;;
17993;SDS011;9122;48.406;9.984;2023-04-15T07:09:33;5.37;;;4.80;;
17993;SDS011;9122;48.406;9.984;2023-04-15T07:12:17;6.67;;;4.87;;
17993;SDS011;9122;48.406;9.984;2023-04-15T07:15:03;5.20;;;4.80;;
17993;SDS011;9122;48.406;9.984;2023-04-15T07:17:48;5.67;;;5.17;;
17993;SDS011;9122;48.406;9.984;2023-04-15T07:20:32;7.57;;;5.43;;
17993;SDS011;9122;48.406;9.984;2023-04-15T07:23:16;6.07;;;4.87;;
17993;SDS011;9122;48.406;9.984;2023-04-15T07:26:01;4.73;;;4.33;;
17993;SDS011;9122;48.406;9.984;2023-04-15T07:28:46;4.73;;;4.33;;
17993;SDS011;9122;48.406;9.984;2023-04-15T07:31:31;6.50;;;5.00;;
17993;SDS011;9122;48.406;9.984;2023-04-15T07:34:15;7.13;;;5.00;;
17993;SDS011;9122;48.406;9.984;2023-04-15T07:37:00;5.10;;;4.60;;
17993;SDS011;9122;48.406;9.984;2023-04-15T07:39:44;5.77;;;5.17;;
17993;SDS011;9122;48.406;9.984;2023-04-15T07:42:28;6.10;;;4.47;;
17993;SDS011;9122;48.406;9.984;2023-04-15T07:45:13;5.77;;;4.77;;
17993;SDS011;9122;48.406;9.984;2023-04-15T07:47:57;5.83;;;5.23;;
17993;SDS011;9122;48.406;9.984;2023-04-15T07:50:42;6.70;;;4.90;;
17993;SDS011;9122;48.406;9.984;2023-04-15T07:53:27;6.10;;;4.40;;
17993;SDS011;9122;48.406;9.984;2023-04-15T07:56:11;4.23;;;3.83;;
17993;SDS011;9122;48.406;9.984;2023-04-15T07:58:56;5.53;;;3.70;;
17993;SDS011;9122;48.406;9.984;2023-04-15T08:01:40;5.90;;;3.93;;
17993;SDS011;9122;48.406;9.984;2023-04-15T08:04:25;5.87;;;4.50;;
17993;SDS011;9122;48.406;9.984;2023-04-15T08:07:09;4.60;;;4.20;;
17993;SDS011;9122;48.406;9.984;2023-04-15T08:09:54;5.50;;;5.00;;
17993;SDS011;9122;48.406;9.984;2023-04-15T08:12:39;4.77;;;4.37;;
17993;SDS011;9122;48.406;9.984;2023-04-15T08:15:24;6.83;;;4.37;;
17993;SDS011;9122;48.406;9.984;2023-04-15T08:18:09;4.63;;;4.23;;
17993;SDS011;9122;48.406;9.984;2023-04-15T08:20:53;5.13;;;4.73;;
17993;SDS011;9122;48.406;9.984;2023-04-15T08:23:37;4.60;;;4.00;;
17993;SDS011;9122;48.406;9.984;2023-04-15T08:26:22;4.57;;;4.17;;
17993;SDS011;9122;48.406;9.984;2023-04-15T08:29:06;5.20;;;3.97;;
17993;SDS011;9122;48.406;9.984;2023-04-15T08:31:52;5.03;;;4.53;;
17993;SDS011;9122;48.406;9.984;2023-04-15T08:34:37;4.43;;;4.03;;
17993;SDS011;9122;48.406;9.984;2023-04-15T08:37:21;5.17;;;4.37;;
17993;SDS011;9122;48.406;9.984;2023-04-15T08:40:06;4.97;;;4.47;;
17993;SDS011;9122;48.406;9.984;2023-04-15T08:42:52;5.57;;;4.40;;
17993;SDS011;9122;48.406;9.984;2023-04-15T08:45:40;4.83;;;4.33;;
17993;SDS011;9122;48.406;9.984;2023-04-15T08:48:26;5.73;;;4.70;;
17993;SDS011;9122;48.406;9.984;2023-04-15T08:51:12;5.43;;;4.90;;
17993;SDS011;9122;48.406;9.984;2023-04-15T08:53:58;4.83;;;4.50;;
17993;SDS011;9122;48.406;9.984;2023-04-15T08:56:44;4.50;;;4.10;;
17993;SDS011;9122;48.406;9.984;2023-04-15T08:59:29;5.33;;;4.70;;
17993;SDS011;9122;48.406;9.984;2023-04-15T09:02:14;4.77;;;4.17;;
17993;SDS011;9122;48.406;9.984;2023-04-15T09:04:59;4.47;;;4.07;;
17993;SDS011;9122;48.406;9.984;2023-04-15T09:07:43;5.23;;;4.73;;
17993;SDS011;9122;48.406;9.984;2023-04-15T09:10:28;4.47;;;4.07;;
17993;SDS011;9122;48.406;9.984;2023-04-15T09:13:12;4.87;;;4.10;;
17993;SDS011;9122;48.406;9.984;2023-04-15T09:15:57;5.17;;;4.47;;
17993;SDS011;9122;48.406;9.984;2023-04-15T09:18:42;5.63;;;4.47;;
17993;SDS011;9122;48.406;9.984;2023-04-15T09:21:26;4.87;;;4.47;;
17993;SDS011;9122;48.406;9.984;2023-04-15T09:24:13;5.50;;;4.93;;
17993;SDS011;9122;48.406;9.984;2023-04-15T09:26:58;4.73;;;4.03;;
17993;SDS011;9122;48.406;9.984;2023-04-15T09:29:43;5.50;;;4.70;;
17993;SDS011;9122;48.406;9.984;2023-04-15T09:32:28;5.57;;;4.20;;
17993;SDS011;9122;48.406;9.984;2023-04-15T09:35:12;6.77;;;3.83;;
17993;SDS011;9122;48.406;9.984;2023-04-15T09:38:07;3.83;;;3.53;;
17993;SDS011;9122;48.406;9.984;2023-04-15T09:40:52;2.80;;;2.60;;
17993;SDS011;9122;48.406;9.984;2023-04-15T09:43:38;2.53;;;2.20;;
17993;SDS011;9122;48.406;9.984;2023-04-15T09:46:42;2.33;;;2.13;;
17993;SDS011;9122;48.406;9.984;2023-04-15T09:49:27;2.30;;;2.10;;
17993;SDS011;9122;48.406;9.984;2023-04-15T09:52:12;2.80;;;2.40;;
17993;SDS011;9122;48.406;9.984;2023-04-15T09:54:57;3.27;;;2.20;;
17993;SDS011;9122;48.406;9.984;2023-04-15T09:57:42;2.40;;;2.20;;
17993;SDS011;9122;48.406;9.984;2023-04-15T10:00:31;2.70;;;2.50;;
17993;SDS011;9122;48.406;9.984;2023-04-15T10:03:18;2.83;;;2.17;;
17993;SDS011;9122;48.406;9.984;2023-04-15T10:06:03;2.17;;;1.97;;
17993;SDS011;9122;48.406;9.984;2023-04-15T10:08:48;2.43;;;2.03;;
17993;SDS011;9122;48.406;9.984;2023-04-15T10:11:33;2.20;;;2.10;;
17993;SDS011;9122;48.406;9.984;2023-04-15T10:14:18;2.57;;;1.97;;
17993;SDS011;9122;48.406;9.984;2023-04-15T10:17:04;5.23;;;2.33;;
17993;SDS011;9122;48.406;9.984;2023-04-15T10:19:48;2.70;;;2.30;;
17993;SDS011;9122;48.406;9.984;2023-04-15T10:22:37;2.87;;;2.67;;
17993;SDS011;9122;48.406;9.984;2023-04-15T10:25:23;3.53;;;2.63;;
17993;SDS011;9122;48.406;9.984;2023-04-15T10:28:11;4.90;;;3.37;;
17993;SDS011;9122;48.406;9.984;2023-04-15T10:30:57;7.10;;;3.27;;
17993;SDS011;9122;48.406;9.984;2023-04-15T10:33:42;5.27;;;3.63;;
17993;SDS011;9122;48.406;9.984;2023-04-15T10:36:28;4.50;;;3.07;;
17993;SDS011;9122;48.406;9.984;2023-04-15T10:42:17;3.10;;;2.73;;
17993;SDS011;9122;48.406;9.984;2023-04-15T10:45:03;4.57;;;3.20;;
17993;SDS011;9122;48.406;9.984;2023-04-15T10:48:00;6.10;;;3.40;;
17993;SDS011;9122;48.406;9.984;2023-04-15T10:50:56;2.53;;;2.33;;
17993;SDS011;9122;48.406;9.984;2023-04-15T10:53:41;3.00;;;2.70;;
17993;SDS011;9122;48.406;9.984;2023-04-15T10:56:27;3.60;;;2.87;;
17993;SDS011;9122;48.406;9.984;2023-04-15T10:59:12;3.17;;;2.90;;
17993;SDS011;9122;48.406;9.984;2023-04-15T11:01:59;4.37;;;2.70;;
17993;SDS011;9122;48.406;9.984;2023-04-15T11:13:15;3.20;;;2.53;;
17993;SDS011;9122;48.406;9.984;2023-04-15T11:16:06;4.53;;;2.60;;
17993;SDS011;9122;48.406;9.984;2023-04-15T11:18:54;2.80;;;2.60;;
17993;SDS011;9122;48.406;9.984;2023-04-15T11:21:39;2.67;;;2.47;;
17993;SDS011;9122;48.406;9.984;2023-04-15T11:24:23;4.73;;;3.27;;
17993;SDS011;9122;48.406;9.984;2023-04-15T11:27:19;7.50;;;3.10;;
17993;SDS011;9122;48.406;9.984;2023-04-15T11:30:16;2.87;;;2.67;;
17993;SDS011;9122;48.406;9.984;2023-04-15T11:33:03;3.23;;;3.00;;
17993;SDS011;9122;48.406;9.984;2023-04-15T11:35:51;4.73;;;3.33;;
17993;SDS011;9122;48.406;9.984;2023-04-15T11:38:42;3.00;;;2.80;;
17993;SDS011;9122;48.406;9.984;2023-04-15T11:41:27;4.97;;;3.57;;
17993;SDS011;9122;48.406;9.984;2023-04-15T11:44:15;3.40;;;3.20;;
17993;SDS011;9122;48.406;9.984;2023-04-15T11:47:00;3.53;;;3.33;;
17993;SDS011;9122;48.406;9.984;2023-04-15T11:49:44;3.27;;;2.90;;
17993;SDS011;9122;48.406;9.984;2023-04-15T11:52:29;5.00;;;3.50;;
17993;SDS011;9122;48.406;9.984;2023-04-15T11:55:13;4.33;;;3.00;;
17993;SDS011;9122;48.406;9.984;2023-04-15T11:58:33;3.10;;;2.90;;
17993;SDS011;9122;48.406;9.984;2023-04-15T12:01:10;3.87;;;3.07;;
17993;SDS011;9122;48.406;9.984;2023-04-15T12:03:54;3.57;;;2.90;;
17993;SDS011;9122;48.406;9.984;2023-04-15T12:06:40;3.67;;;3.30;;
17993;SDS011;9122;48.406;9.984;2023-04-15T12:09:24;3.50;;;3.20;;
17993;SDS011;9122;48.406;9.984;2023-04-15T12:12:09;4.27;;;3.40;;
17993;SDS011;9122;48.406;9.984;2023-04-15T12:14:55;5.67;;;4.00;;
17993;SDS011;9122;48.406;9.984;2023-04-15T12:17:40;4.90;;;3.73;;
17993;SDS011;9122;48.406;9.984;2023-04-15T12:20:24;5.33;;;3.67;;
17993;SDS011;9122;48.406;9.984;2023-04-15T12:23:09;3.97;;;3.00;;
17993;SDS011;9122;48.406;9.984;2023-04-15T12:25:53;3.70;;;3.40;;
17993;SDS011;9122;48.406;9.984;2023-04-15T12:28:39;4.03;;;3.63;;
17993;SDS011;9122;48.406;9.984;2023-04-15T12:31:24;4.00;;;3.70;;
17993;SDS011;9122;48.406;9.984;2023-04-15T12:34:09;4.10;;;3.03;;
17993;SDS011;9122;48.406;9.984;2023-04-15T12:36:53;5.10;;;3.10;;
17993;SDS011;9122;48.406;9.984;2023-04-15T12:39:40;3.40;;;3.10;;
17993;SDS011;9122;48.406;9.984;2023-04-15T12:42:26;4.20;;;3.37;;
17993;SDS011;9122;48.406;9.984;2023-04-15T12:45:10;3.77;;;3.47;;
17993;SDS011;9122;48.406;9.984;2023-04-15T12:47:54;4.37;;;3.13;;
17993;SDS011;9122;48.406;9.984;2023-04-15T12:50:38;3.57;;;2.87;;
17993;SDS011;9122;48.406;9.984;2023-04-15T12:53:23;4.83;;;3.53;;
17993;SDS011;9122;48.406;9.984;2023-04-15T12:56:07;3.20;;;3.00;;
17993;SDS011;9122;48.406;9.984;2023-04-15T12:58:51;3.67;;;3.20;;
17993;SDS011;9122;48.406;9.984;2023-04-15T13:01:36;3.50;;;3.20;;
17993;SDS011;9122;48.406;9.984;2023-04-15T13:04:20;4.20;;;3.37;;
17993;SDS011;9122;48.406;9.984;2023-04-15T13:07:05;3.90;;;3.60;;
17993;SDS011;9122;48.406;9.984;2023-04-15T13:09:50;3.87;;;3.57;;
17993;SDS011;9122;48.406;9.984;2023-04-15T13:12:34;5.80;;;3.40;;
17993;SDS011;9122;48.406;9.984;2023-04-15T13:15:19;3.10;;;2.80;;
17993;SDS011;9122;48.406;9.984;2023-04-15T13:18:05;3.73;;;3.20;;
17993;SDS011;9122;48.406;9.984;2023-04-15T13:20:50;5.13;;;3.77;;
17993;SDS011;9122;48.406;9.984;2023-04-15T13:23:35;4.73;;;3.93;;
17993;SDS011;9122;48.406;9.984;2023-04-15T13:26:19;3.87;;;3.50;;
17993;SDS011;9122;48.406;9.984;2023-04-15T13:29:04;5.23;;;4.67;;
17993;SDS011;9122;48.406;9.984;2023-04-15T13:31:48;8.17;;;4.90;;
17993;SDS011;9122;48.406;9.984;2023-04-15T13:34:32;4.70;;;4.13;;
17993;SDS011;9122;48.406;9.984;2023-04-15T13:37:16;5.63;;;3.80;;
17993;SDS011;9122;48.406;9.984;2023-04-15T13:40:01;4.97;;;4.40;;
17993;SDS011;9122;48.406;9.984;2023-04-15T13:42:46;5.47;;;3.43;;
17993;SDS011;9122;48.406;9.984;2023-04-15T13:45:31;3.93;;;3.67;;
17993;SDS011;9122;48.406;9.984;2023-04-15T13:48:15;4.00;;;3.70;;
17993;SDS011;9122;48.406;9.984;2023-04-15T13:51:00;4.57;;;4.13;;
17993;SDS011;9122;48.406;9.984;2023-04-15T13:53:44;4.70;;;4.30;;
17993;SDS011;9122;48.406;9.984;2023-04-15T13:56:29;4.60;;;4.27;;
17993;SDS011;9122;48.406;9.984;2023-04-15T13:59:13;4.80;;;4.40;;
17993;SDS011;9122;48.406;9.984;2023-04-15T14:01:58;4.23;;;3.93;;
17993;SDS011;9122;48.406;9.984;2023-04-15T14:04:43;4.77;;;4.37;;
17993;SDS011;9122;48.406;9.984;2023-04-15T14:07:28;4.93;;;3.90;;
17993;SDS011;9122;48.406;9.984;2023-04-15T14:10:13;4.53;;;4.13;;
17993;SDS011;9122;48.406;9.984;2023-04-15T14:12:57;4.23;;;3.87;;
17993;SDS011;9122;48.406;9.984;2023-04-15T14:15:42;4.20;;;3.90;;
17993;SDS011;9122;48.406;9.984;2023-04-15T14:18:26;4.93;;;4.63;;
17993;SDS011;9122;48.406;9.984;2023-04-15T14:21:10;4.50;;;4.10;;
17993;SDS011;9122;48.406;9.984;2023-04-15T14:23:55;4.17;;;3.77;;
17993;SDS011;9122;48.406;9.984;2023-04-15T14:26:40;5.80;;;3.70;;
17993;SDS011;9122;48.406;9.984;2023-04-15T14:29:27;4.40;;;4.10;;
17993;SDS011;9122;48.406;9.984;2023-04-15T14:32:11;4.03;;;3.73;;
17993;SDS011;9122;48.406;9.984;2023-04-15T14:34:55;3.97;;;3.67;;
17993;SDS011;9122;48.406;9.984;2023-04-15T14:37:40;3.30;;;3.10;;
17993;SDS011;9122;48.406;9.984;2023-04-15T14:40:25;3.40;;;3.10;;
17993;SDS011;9122;48.406;9.984;2023-04-15T14:43:09;3.80;;;3.50;;
17993;SDS011;9122;48.406;9.984;2023-04-15T14:45:54;3.60;;;3.33;;
17993;SDS011;9122;48.406;9.984;2023-04-15T14:48:38;3.50;;;3.20;;
17993;SDS011;9122;48.406;9.984;2023-04-15T14:51:24;2.67;;;2.47;;
17993;SDS011;9122;48.406;9.984;2023-04-15T14:54:09;3.47;;;3.17;;
17993;SDS011;9122;48.406;9.984;2023-04-15T14:56:53;3.60;;;3.17;;
17993;SDS011;9122;48.406;9.984;2023-04-15T14:59:38;2.83;;;2.63;;
17993;SDS011;9122;48.406;9.984;2023-04-15T15:02:23;4.77;;;3.07;;
17993;SDS011;9122;48.406;9.984;2023-04-15T15:05:08;2.93;;;2.47;;
17993;SDS011;9122;48.406;9.984;2023-04-15T15:07:53;3.20;;;2.40;;
17993;SDS011;9122;48.406;9.984;2023-04-15T15:10:38;4.40;;;2.90;;
17993;SDS011;9122;48.406;9.984;2023-04-15T15:13:23;2.40;;;2.20;;
17993;SDS011;9122;48.406;9.984;2023-04-15T15:16:08;2.00;;;1.90;;
17993;SDS011;9122;48.406;9.984;2023-04-15T15:18:52;2.67;;;2.10;;
17993;SDS011;9122;48.406;9.984;2023-04-15T15:21:37;1.77;;;1.67;;
17993;SDS011;9122;48.406;9.984;2023-04-15T15:24:22;2.47;;;2.17;;
17993;SDS011;9122;48.406;9.984;2023-04-15T15:27:06;1.77;;;1.67;;
17993;SDS011;9122;48.406;9.984;2023-04-15T15:29:51;2.30;;;2.10;;
17993;SDS011;9122;48.406;9.984;2023-04-15T15:32:37;2.13;;;1.93;;
17993;SDS011;9122;48.406;9.984;2023-04-15T15:35:22;1.90;;;1.80;;
17993;SDS011;9122;48.406;9.984;2023-04-15T15:38:10;2.07;;;1.90;;
17993;SDS011;9122;48.406;9.984;2023-04-15T15:40:55;1.80;;;1.70;;
17993;SDS011;9122;48.406;9.984;2023-04-15T15:43:39;2.23;;;2.00;;
17993;SDS011;9122;48.406;9.984;2023-04-15T15:46:23;2.17;;;1.80;;
17993;SDS011;9122;48.406;9.984;2023-04-15T15:49:10;2.10;;;1.90;;
17993;SDS011;9122;48.406;9.984;2023-04-15T15:51:55;2.30;;;2.20;;
17993;SDS011;9122;48.406;9.984;2023-04-15T15:54:40;1.90;;;1.80;;
17993;SDS011;9122;48.406;9.984;2023-04-15T15:57:25;1.60;;;1.50;;
17993;SDS011;9122;48.406;9.984;2023-04-15T16:00:09;1.97;;;1.80;;
17993;SDS011;9122;48.406;9.984;2023-04-15T16:02:54;1.90;;;1.80;;
17993;SDS011;9122;48.406;9.984;2023-04-15T16:05:40;2.33;;;2.13;;
17993;SDS011;9122;48.406;9.984;2023-04-15T16:08:25;3.57;;;2.03;;
17993;SDS011;9122;48.406;9.984;2023-04-15T16:11:09;2.57;;;2.40;;
17993;SDS011;9122;48.406;9.984;2023-04-15T16:14:02;3.40;;;2.00;;
17993;SDS011;9122;48.406;9.984;2023-04-15T16:16:47;2.23;;;2.13;;
17993;SDS011;9122;48.406;9.984;2023-04-15T16:19:31;2.13;;;1.83;;
17993;SDS011;9122;48.406;9.984;2023-04-15T16:22:15;2.73;;;2.00;;
17993;SDS011;9122;48.406;9.984;2023-04-15T16:25:02;1.83;;;1.73;;
17993;SDS011;9122;48.406;9.984;2023-04-15T16:27:47;2.10;;;2.00;;
17993;SDS011;9122;48.406;9.984;2023-04-15T16:30:33;1.90;;;1.80;;
17993;SDS011;9122;48.406;9.984;2023-04-15T16:33:21;2.53;;;1.90;;
17993;SDS011;9122;48.406;9.984;2023-04-15T16:36:06;2.10;;;1.90;;
17993;SDS011;9122;48.406;9.984;2023-04-15T16:38:53;2.10;;;1.90;;
17993;SDS011;9122;48.406;9.984;2023-04-15T16:41:38;2.13;;;1.93;;
17993;SDS011;9122;48.406;9.984;2023-04-15T16:44:23;2.00;;;1.90;;
17993;SDS011;9122;48.406;9.984;2023-04-15T16:47:08;2.30;;;2.10;;
17993;SDS011;9122;48.406;9.984;2023-04-15T16:49:54;2.63;;;1.87;;
17993;SDS011;9122;48.406;9.984;2023-04-15T16:52:39;2.10;;;2.00;;
17993;SDS011;9122;48.406;9.984;2023-04-15T16:55:23;2.40;;;2.30;;
17993;SDS011;9122;48.406;9.984;2023-04-15T16:58:08;2.77;;;2.00;;
17993;SDS011;9122;48.406;9.984;2023-04-15T17:00:53;2.57;;;2.37;;